sensor_id;sensor_type;location;lat;lon;timestamp;pressure;altitude;pressure_sealevel;temperature;humidity
61014;BME280;46899;47.542;19.082;2023-07-20T00:03:09;99701.06;;;22.67;80.88
61014;BME280;46899;47.542;19.082;2023-07-20T00:06:12;99694.06;;;22.57;81.14
61014;BME280;46899;47.542;19.082;2023-07-20T00:09:15;99683.66;;;22.45;82.07
61014;BME280;46899;47.542;19.082;2023-07-20T00:12:17;99688.00;;;22.37;83.13
61014;BME280;46899;47.542;19.082;2023-07-20T00:15:20;99707.97;;;22.31;83.54
61014;BME280;46899;47.542;19.082;2023-07-20T00:18:22;99700.59;;;22.35;83.29
61014;BME280;46899;47.542;19.082;2023-07-20T00:21:25;99701.28;;;22.27;84.36
61014;BME280;46899;47.542;19.082;2023-07-20T00:24:28;99698.38;;;22.21;85.07
61014;BME280;46899;47.542;19.082;2023-07-20T00:27:31;99687.25;;;22.08;85.67
61014;BME280;46899;47.542;19.082;2023-07-20T00:30:33;99682.66;;;22.00;86.26
61014;BME280;46899;47.542;19.082;2023-07-20T00:33:37;99680.56;;;21.94;86.22
61014;BME280;46899;47.542;19.082;2023-07-20T00:36:40;99687.97;;;21.91;86.90
61014;BME280;46899;47.542;19.082;2023-07-20T00:39:42;99683.38;;;21.93;86.76
61014;BME280;46899;47.542;19.082;2023-07-20T00:42:45;99693.69;;;21.86;86.83
61014;BME280;46899;47.542;19.082;2023-07-20T00:45:47;99697.03;;;21.78;88.47
61014;BME280;46899;47.542;19.082;2023-07-20T00:48:52;99698.00;;;21.77;88.01
61014;BME280;46899;47.542;19.082;2023-07-20T00:51:55;99689.63;;;21.82;87.77
61014;BME280;46899;47.542;19.082;2023-07-20T00:54:57;99685.59;;;21.78;88.57
61014;BME280;46899;47.542;19.082;2023-07-20T00:58:00;99676.22;;;21.74;88.93
61014;BME280;46899;47.542;19.082;2023-07-20T01:01:03;99665.09;;;21.70;88.85
61014;BME280;46899;47.542;19.082;2023-07-20T01:04:05;99669.72;;;21.68;88.92
61014;BME280;46899;47.542;19.082;2023-07-20T01:10:17;99666.47;;;21.65;89.85
61014;BME280;46899;47.542;19.082;2023-07-20T01:13:22;99657.72;;;21.64;89.74
61014;BME280;46899;47.542;19.082;2023-07-20T01:16:27;99653.66;;;21.70;89.09
61014;BME280;46899;47.542;19.082;2023-07-20T01:19:30;99653.25;;;21.74;89.10
61014;BME280;46899;47.542;19.082;2023-07-20T01:32:05;99652.97;;;21.77;89.31
61014;BME280;46899;47.542;19.082;2023-07-20T01:35:09;99669.12;;;21.74;89.62
61014;BME280;46899;47.542;19.082;2023-07-20T01:38:13;99650.91;;;21.71;90.37
61014;BME280;46899;47.542;19.082;2023-07-20T01:41:16;99655.34;;;21.71;90.01
61014;BME280;46899;47.542;19.082;2023-07-20T01:44:19;99664.94;;;21.72;89.77
61014;BME280;46899;47.542;19.082;2023-07-20T01:47:21;99675.41;;;21.73;90.53
61014;BME280;46899;47.542;19.082;2023-07-20T01:50:24;99676.94;;;21.76;90.45
61014;BME280;46899;47.542;19.082;2023-07-20T01:53:27;99673.19;;;21.78;90.08
61014;BME280;46899;47.542;19.082;2023-07-20T01:56:32;99673.34;;;21.87;89.76
61014;BME280;46899;47.542;19.082;2023-07-20T01:59:34;99678.47;;;21.88;90.04
61014;BME280;46899;47.542;19.082;2023-07-20T02:02:37;99680.44;;;21.86;90.23
61014;BME280;46899;47.542;19.082;2023-07-20T02:05:43;99676.25;;;21.93;89.03
61014;BME280;46899;47.542;19.082;2023-07-20T02:08:45;99679.31;;;21.98;87.25
61014;BME280;46899;47.542;19.082;2023-07-20T02:11:48;99680.44;;;21.96;87.72
61014;BME280;46899;47.542;19.082;2023-07-20T02:14:50;99692.03;;;21.95;86.84
61014;BME280;46899;47.542;19.082;2023-07-20T02:17:53;99690.06;;;21.97;86.82
61014;BME280;46899;47.542;19.082;2023-07-20T02:20:56;99694.25;;;21.90;87.52
61014;BME280;46899;47.542;19.082;2023-07-20T02:23:59;99703.03;;;21.90;87.53
61014;BME280;46899;47.542;19.082;2023-07-20T02:27:02;99704.13;;;21.78;88.89
61014;BME280;46899;47.542;19.082;2023-07-20T02:30:04;99697.16;;;21.77;88.64
61014;BME280;46899;47.542;19.082;2023-07-20T02:33:07;99700.91;;;21.74;88.53
61014;BME280;46899;47.542;19.082;2023-07-20T02:36:10;99704.56;;;21.73;88.91
61014;BME280;46899;47.542;19.082;2023-07-20T02:39:13;99699.78;;;21.77;88.64
61014;BME280;46899;47.542;19.082;2023-07-20T02:42:15;99700.91;;;21.74;89.48
61014;BME280;46899;47.542;19.082;2023-07-20T02:45:18;99715.72;;;21.87;89.35
61014;BME280;46899;47.542;19.082;2023-07-20T02:48:21;99704.16;;;21.88;87.93
61014;BME280;46899;47.542;19.082;2023-07-20T02:51:23;99717.53;;;21.86;88.57
61014;BME280;46899;47.542;19.082;2023-07-20T02:54:28;99715.16;;;21.83;89.01
61014;BME280;46899;47.542;19.082;2023-07-20T02:57:32;99715.72;;;21.87;87.98
61014;BME280;46899;47.542;19.082;2023-07-20T03:00:34;99715.72;;;21.96;87.67
61014;BME280;46899;47.542;19.082;2023-07-20T03:03:37;99711.25;;;21.97;87.48
61014;BME280;46899;47.542;19.082;2023-07-20T03:06:40;99723.25;;;22.01;86.86
61014;BME280;46899;47.542;19.082;2023-07-20T03:09:43;99733.31;;;21.97;86.89
61014;BME280;46899;47.542;19.082;2023-07-20T03:12:46;99728.81;;;21.88;86.96
61014;BME280;46899;47.542;19.082;2023-07-20T03:15:49;99726.47;;;21.85;86.95
61014;BME280;46899;47.542;19.082;2023-07-20T03:18:51;99729.78;;;21.77;86.59
61014;BME280;46899;47.542;19.082;2023-07-20T03:21:54;99733.38;;;21.67;87.31
61014;BME280;46899;47.542;19.082;2023-07-20T03:24:57;99742.47;;;21.64;86.92
61014;BME280;46899;47.542;19.082;2023-07-20T03:28:01;99740.78;;;21.73;84.73
61014;BME280;46899;47.542;19.082;2023-07-20T03:31:03;99741.91;;;21.80;83.58
61014;BME280;46899;47.542;19.082;2023-07-20T03:34:07;99750.28;;;21.75;83.75
61014;BME280;46899;47.542;19.082;2023-07-20T03:37:12;99753.62;;;21.77;82.02
61014;BME280;46899;47.542;19.082;2023-07-20T03:40:15;99752.66;;;21.78;80.59
61014;BME280;46899;47.542;19.082;2023-07-20T03:43:18;99756.16;;;21.89;79.84
61014;BME280;46899;47.542;19.082;2023-07-20T03:46:21;99756.03;;;21.90;79.25
61014;BME280;46899;47.542;19.082;2023-07-20T03:49:24;99762.03;;;22.02;78.17
61014;BME280;46899;47.542;19.082;2023-07-20T03:52:26;99769.81;;;22.13;77.68
61014;BME280;46899;47.542;19.082;2023-07-20T03:55:29;99765.47;;;22.02;78.12
61014;BME280;46899;47.542;19.082;2023-07-20T03:58:31;99771.19;;;22.17;77.45
61014;BME280;46899;47.542;19.082;2023-07-20T04:01:34;99775.38;;;22.19;76.70
61014;BME280;46899;47.542;19.082;2023-07-20T04:04:39;99779.56;;;22.12;76.86
61014;BME280;46899;47.542;19.082;2023-07-20T04:07:42;99774.16;;;22.14;77.28
61014;BME280;46899;47.542;19.082;2023-07-20T04:10:45;99770.78;;;22.12;78.20
61014;BME280;46899;47.542;19.082;2023-07-20T04:13:47;99780.16;;;22.16;77.28
61014;BME280;46899;47.542;19.082;2023-07-20T04:16:50;99769.81;;;22.22;76.80
61014;BME280;46899;47.542;19.082;2023-07-20T04:19:53;99767.31;;;22.21;77.14
61014;BME280;46899;47.542;19.082;2023-07-20T04:22:56;99760.84;;;22.23;76.10
61014;BME280;46899;47.542;19.082;2023-07-20T04:25:58;99755.28;;;22.17;76.28
61014;BME280;46899;47.542;19.082;2023-07-20T04:29:01;99757.66;;;22.20;76.01
61014;BME280;46899;47.542;19.082;2023-07-20T04:32:04;99748.87;;;22.19;76.39
61014;BME280;46899;47.542;19.082;2023-07-20T04:35:07;99745.94;;;22.32;76.16
61014;BME280;46899;47.542;19.082;2023-07-20T04:38:10;99750.97;;;22.35;75.20
61014;BME280;46899;47.542;19.082;2023-07-20T04:41:13;99753.59;;;22.35;75.61
61014;BME280;46899;47.542;19.082;2023-07-20T04:44:16;99757.22;;;22.43;75.40
61014;BME280;46899;47.542;19.082;2023-07-20T04:47:19;99759.59;;;22.37;75.64
61014;BME280;46899;47.542;19.082;2023-07-20T04:50:22;99756.25;;;22.44;74.91
61014;BME280;46899;47.542;19.082;2023-07-20T04:53:27;99753.69;;;22.53;74.84
61014;BME280;46899;47.542;19.082;2023-07-20T04:56:29;99755.78;;;22.59;73.89
61014;BME280;46899;47.542;19.082;2023-07-20T04:59:33;99763.00;;;22.76;70.74
61014;BME280;46899;47.542;19.082;2023-07-20T05:02:35;99764.09;;;22.83;71.00
61014;BME280;46899;47.542;19.082;2023-07-20T05:05:38;99760.91;;;23.06;68.71
61014;BME280;46899;47.542;19.082;2023-07-20T05:08:40;99763.28;;;23.09;67.83
61014;BME280;46899;47.542;19.082;2023-07-20T05:11:43;99760.03;;;23.15;67.70
61014;BME280;46899;47.542;19.082;2023-07-20T05:14:47;99764.47;;;23.25;67.48
61014;BME280;46899;47.542;19.082;2023-07-20T05:17:50;99768.34;;;23.30;67.00
61014;BME280;46899;47.542;19.082;2023-07-20T05:20:52;99779.94;;;23.39;66.04
61014;BME280;46899;47.542;19.082;2023-07-20T05:23:57;99779.63;;;23.42;66.23
61014;BME280;46899;47.542;19.082;2023-07-20T05:26:59;99781.38;;;23.51;65.57
61014;BME280;46899;47.542;19.082;2023-07-20T05:30:02;99771.81;;;23.58;63.35
61014;BME280;46899;47.542;19.082;2023-07-20T05:33:04;99775.03;;;23.61;63.29
61014;BME280;46899;47.542;19.082;2023-07-20T05:36:07;99778.53;;;23.62;62.55
61014;BME280;46899;47.542;19.082;2023-07-20T05:39:10;99769.78;;;23.69;62.32
61014;BME280;46899;47.542;19.082;2023-07-20T05:42:12;99764.78;;;23.66;61.83
61014;BME280;46899;47.542;19.082;2023-07-20T05:45:15;99773.44;;;23.68;61.94
61014;BME280;46899;47.542;19.082;2023-07-20T05:48:17;99789.53;;;23.85;60.83
61014;BME280;46899;47.542;19.082;2023-07-20T05:51:20;99782.72;;;24.00;60.71
61014;BME280;46899;47.542;19.082;2023-07-20T05:54:26;99789.22;;;24.05;59.45
61014;BME280;46899;47.542;19.082;2023-07-20T05:57:28;99791.53;;;24.18;59.22
61014;BME280;46899;47.542;19.082;2023-07-20T06:00:31;99792.19;;;24.37;57.98
61014;BME280;46899;47.542;19.082;2023-07-20T06:03:34;99795.66;;;24.56;57.59
61014;BME280;46899;47.542;19.082;2023-07-20T06:06:36;99794.87;;;24.63;56.88
61014;BME280;46899;47.542;19.082;2023-07-20T06:09:39;99791.84;;;24.58;56.70
61014;BME280;46899;47.542;19.082;2023-07-20T06:12:41;99791.66;;;24.60;57.19
61014;BME280;46899;47.542;19.082;2023-07-20T06:15:44;99797.91;;;24.68;56.80
61014;BME280;46899;47.542;19.082;2023-07-20T06:18:46;99806.97;;;24.58;57.23
61014;BME280;46899;47.542;19.082;2023-07-20T06:21:49;99806.69;;;24.69;57.76
61014;BME280;46899;47.542;19.082;2023-07-20T06:24:51;99813.84;;;24.86;57.65
61014;BME280;46899;47.542;19.082;2023-07-20T06:27:55;99820.94;;;25.03;57.36
61014;BME280;46899;47.542;19.082;2023-07-20T06:31:01;99810.66;;;25.16;57.22
61014;BME280;46899;47.542;19.082;2023-07-20T06:34:04;99824.16;;;25.14;55.81
61014;BME280;46899;47.542;19.082;2023-07-20T06:37:07;99821.72;;;25.29;55.71
61014;BME280;46899;47.542;19.082;2023-07-20T06:40:09;99818.53;;;25.26;55.16
61014;BME280;46899;47.542;19.082;2023-07-20T06:43:15;99820.63;;;25.14;56.06
61014;BME280;46899;47.542;19.082;2023-07-20T06:46:21;99830.03;;;25.26;55.30
61014;BME280;46899;47.542;19.082;2023-07-20T06:49:24;99843.03;;;25.29;55.10
61014;BME280;46899;47.542;19.082;2023-07-20T06:52:28;99830.69;;;25.20;55.68
61014;BME280;46899;47.542;19.082;2023-07-20T06:55:31;99843.75;;;25.89;53.74
61014;BME280;46899;47.542;19.082;2023-07-20T06:58:42;99842.72;;;29.17;45.27
61014;BME280;46899;47.542;19.082;2023-07-20T07:01:44;99857.81;;;33.61;34.94
61014;BME280;46899;47.542;19.082;2023-07-20T07:04:47;99857.94;;;35.23;31.00
61014;BME280;46899;47.542;19.082;2023-07-20T07:07:50;99862.28;;;37.02;28.96
61014;BME280;46899;47.542;19.082;2023-07-20T07:10:52;99873.84;;;39.88;24.84
61014;BME280;46899;47.542;19.082;2023-07-20T07:13:55;99873.84;;;38.40;25.72
61014;BME280;46899;47.542;19.082;2023-07-20T07:16:59;99875.66;;;37.66;26.47
61014;BME280;46899;47.542;19.082;2023-07-20T07:20:06;99881.75;;;37.97;26.42
61014;BME280;46899;47.542;19.082;2023-07-20T07:23:12;99883.09;;;39.44;24.62
61014;BME280;46899;47.542;19.082;2023-07-20T07:26:15;99882.88;;;41.47;22.26
61014;BME280;46899;47.542;19.082;2023-07-20T07:29:17;99878.59;;;40.19;22.95
61014;BME280;46899;47.542;19.082;2023-07-20T07:32:20;99884.91;;;40.52;22.82
61014;BME280;46899;47.542;19.082;2023-07-20T07:35:23;99892.47;;;42.27;20.89
61014;BME280;46899;47.542;19.082;2023-07-20T07:38:26;99886.09;;;42.01;20.63
61014;BME280;46899;47.542;19.082;2023-07-20T07:41:32;99885.44;;;40.00;22.50
61014;BME280;46899;47.542;19.082;2023-07-20T07:44:35;99885.25;;;39.20;23.37
61014;BME280;46899;47.542;19.082;2023-07-20T07:47:38;99890.94;;;40.85;22.25
61014;BME280;46899;47.542;19.082;2023-07-20T07:50:40;99888.16;;;41.17;20.92
61014;BME280;46899;47.542;19.082;2023-07-20T07:53:45;99883.28;;;40.51;20.53
61014;BME280;46899;47.542;19.082;2023-07-20T07:56:47;99882.03;;;39.88;20.89
61014;BME280;46899;47.542;19.082;2023-07-20T07:59:50;99884.56;;;41.12;20.46
61014;BME280;46899;47.542;19.082;2023-07-20T08:02:53;99880.94;;;41.01;20.67
61014;BME280;46899;47.542;19.082;2023-07-20T08:05:56;99890.56;;;42.33;19.45
61014;BME280;46899;47.542;19.082;2023-07-20T08:08:58;99878.87;;;40.50;20.56
61014;BME280;46899;47.542;19.082;2023-07-20T08:12:01;99892.81;;;40.48;20.72
61014;BME280;46899;47.542;19.082;2023-07-20T08:15:03;99892.66;;;41.33;20.15
61014;BME280;46899;47.542;19.082;2023-07-20T08:18:06;99892.50;;;42.72;18.56
61014;BME280;46899;47.542;19.082;2023-07-20T08:21:10;99897.94;;;42.22;18.75
61014;BME280;46899;47.542;19.082;2023-07-20T08:24:12;99895.59;;;41.79;19.48
61014;BME280;46899;47.542;19.082;2023-07-20T08:27:15;99899.22;;;39.67;20.98
61014;BME280;46899;47.542;19.082;2023-07-20T08:30:20;99888.88;;;40.71;20.56
61014;BME280;46899;47.542;19.082;2023-07-20T08:33:23;99894.69;;;42.80;18.86
61014;BME280;46899;47.542;19.082;2023-07-20T08:36:26;99896.25;;;45.12;16.57
61014;BME280;46899;47.542;19.082;2023-07-20T08:39:29;99894.56;;;43.46;17.60
61014;BME280;46899;47.542;19.082;2023-07-20T08:42:32;99894.81;;;41.83;18.92
61014;BME280;46899;47.542;19.082;2023-07-20T08:45:35;99898.25;;;41.17;20.14
61014;BME280;46899;47.542;19.082;2023-07-20T08:48:39;99901.50;;;43.33;17.64
61014;BME280;46899;47.542;19.082;2023-07-20T08:51:42;99909.44;;;40.47;20.10
61014;BME280;46899;47.542;19.082;2023-07-20T08:54:45;99899.78;;;35.63;25.27
61014;BME280;46899;47.542;19.082;2023-07-20T08:57:48;99891.88;;;33.49;28.54
61014;BME280;46899;47.542;19.082;2023-07-20T09:00:52;99889.56;;;32.02;30.11
61014;BME280;46899;47.542;19.082;2023-07-20T09:03:55;99903.28;;;31.04;31.37
61014;BME280;46899;47.542;19.082;2023-07-20T09:06:59;99913.66;;;30.86;32.10
61014;BME280;46899;47.542;19.082;2023-07-20T09:10:01;99898.59;;;30.43;32.36
61014;BME280;46899;47.542;19.082;2023-07-20T09:13:08;99910.88;;;29.51;34.13
61014;BME280;46899;47.542;19.082;2023-07-20T09:16:15;99906.19;;;29.16;35.95
61014;BME280;46899;47.542;19.082;2023-07-20T09:19:18;99909.19;;;29.79;34.88
61014;BME280;46899;47.542;19.082;2023-07-20T09:22:21;99907.97;;;30.96;32.63
61014;BME280;46899;47.542;19.082;2023-07-20T09:25:23;99913.97;;;29.99;34.50
61014;BME280;46899;47.542;19.082;2023-07-20T09:28:30;99910.13;;;29.87;35.59
61014;BME280;46899;47.542;19.082;2023-07-20T09:31:43;99905.00;;;30.42;34.13
61014;BME280;46899;47.542;19.082;2023-07-20T09:35:02;99904.09;;;29.85;34.94
61014;BME280;46899;47.542;19.082;2023-07-20T09:38:08;99897.59;;;29.94;35.71
61014;BME280;46899;47.542;19.082;2023-07-20T09:41:14;99893.38;;;29.85;36.51
61014;BME280;46899;47.542;19.082;2023-07-20T09:44:23;99889.41;;;29.51;36.37
61014;BME280;46899;47.542;19.082;2023-07-20T09:47:29;99892.34;;;30.00;35.16
61014;BME280;46899;47.542;19.082;2023-07-20T09:50:32;99898.09;;;29.83;34.72
61014;BME280;46899;47.542;19.082;2023-07-20T09:53:34;99901.34;;;29.78;35.13
61014;BME280;46899;47.542;19.082;2023-07-20T09:56:38;99897.91;;;30.20;34.60
61014;BME280;46899;47.542;19.082;2023-07-20T09:59:41;99893.41;;;30.06;34.87
61014;BME280;46899;47.542;19.082;2023-07-20T10:02:45;99888.50;;;30.45;34.40
61014;BME280;46899;47.542;19.082;2023-07-20T10:05:51;99893.84;;;31.15;32.79
61014;BME280;46899;47.542;19.082;2023-07-20T10:08:55;99904.56;;;30.87;34.40
61014;BME280;46899;47.542;19.082;2023-07-20T10:12:01;99899.25;;;31.22;33.58
61014;BME280;46899;47.542;19.082;2023-07-20T10:15:26;99908.19;;;30.73;34.41
61014;BME280;46899;47.542;19.082;2023-07-20T10:21:57;99886.84;;;31.48;33.79
61014;BME280;46899;47.542;19.082;2023-07-20T10:25:06;99892.72;;;31.71;33.04
61014;BME280;46899;47.542;19.082;2023-07-20T10:28:08;99896.69;;;31.41;32.82
61014;BME280;46899;47.542;19.082;2023-07-20T10:31:12;99894.84;;;31.83;33.28
61014;BME280;46899;47.542;19.082;2023-07-20T10:34:15;99891.97;;;31.91;32.52
61014;BME280;46899;47.542;19.082;2023-07-20T10:40:39;99877.66;;;31.77;31.36
61014;BME280;46899;47.542;19.082;2023-07-20T10:43:43;99874.56;;;31.39;32.21
61014;BME280;46899;47.542;19.082;2023-07-20T10:46:46;99878.00;;;30.71;32.47
61014;BME280;46899;47.542;19.082;2023-07-20T10:49:58;99880.13;;;29.98;33.21
61014;BME280;46899;47.542;19.082;2023-07-20T10:53:19;99891.00;;;30.11;33.29
61014;BME280;46899;47.542;19.082;2023-07-20T10:56:23;99894.00;;;30.22;32.53
61014;BME280;46899;47.542;19.082;2023-07-20T11:02:41;99886.28;;;29.33;33.63
61014;BME280;46899;47.542;19.082;2023-07-20T11:05:43;99892.00;;;29.45;33.73
61014;BME280;46899;47.542;19.082;2023-07-20T11:08:46;99890.09;;;29.39;34.13
61014;BME280;46899;47.542;19.082;2023-07-20T11:11:54;99887.19;;;29.26;34.67
61014;BME280;46899;47.542;19.082;2023-07-20T11:15:11;99889.59;;;29.64;34.12
61014;BME280;46899;47.542;19.082;2023-07-20T11:18:14;99887.19;;;29.69;34.46
61014;BME280;46899;47.542;19.082;2023-07-20T11:21:17;99884.31;;;29.71;34.60
61014;BME280;46899;47.542;19.082;2023-07-20T11:24:20;99881.97;;;29.97;34.27
61014;BME280;46899;47.542;19.082;2023-07-20T11:27:22;99881.88;;;30.26;33.69
61014;BME280;46899;47.542;19.082;2023-07-20T11:30:25;99886.81;;;30.65;33.85
61014;BME280;46899;47.542;19.082;2023-07-20T11:33:28;99888.56;;;31.00;32.88
61014;BME280;46899;47.542;19.082;2023-07-20T11:36:30;99883.00;;;31.36;31.23
61014;BME280;46899;47.542;19.082;2023-07-20T11:39:36;99878.69;;;31.07;32.23
61014;BME280;46899;47.542;19.082;2023-07-20T11:42:39;99886.50;;;31.02;32.61
61014;BME280;46899;47.542;19.082;2023-07-20T11:45:45;99895.69;;;31.15;30.44
61014;BME280;46899;47.542;19.082;2023-07-20T11:48:48;99884.78;;;31.50;30.62
61014;BME280;46899;47.542;19.082;2023-07-20T11:51:50;99892.75;;;31.09;30.94
61014;BME280;46899;47.542;19.082;2023-07-20T11:54:53;99893.94;;;31.00;31.50
61014;BME280;46899;47.542;19.082;2023-07-20T11:58:02;99896.19;;;31.25;30.83
61014;BME280;46899;47.542;19.082;2023-07-20T12:01:05;99895.69;;;31.15;31.52
61014;BME280;46899;47.542;19.082;2023-07-20T12:04:08;99875.66;;;31.17;31.45
61014;BME280;46899;47.542;19.082;2023-07-20T12:07:10;99864.87;;;31.10;32.05
61014;BME280;46899;47.542;19.082;2023-07-20T12:10:13;99865.44;;;31.06;32.09
61014;BME280;46899;47.542;19.082;2023-07-20T12:13:15;99869.69;;;31.22;31.68
61014;BME280;46899;47.542;19.082;2023-07-20T12:16:19;99877.81;;;31.00;31.55
61014;BME280;46899;47.542;19.082;2023-07-20T12:19:24;99872.91;;;31.04;31.45
61014;BME280;46899;47.542;19.082;2023-07-20T12:22:27;99860.78;;;31.21;31.10
61014;BME280;46899;47.542;19.082;2023-07-20T12:25:37;99850.00;;;31.49;31.19
61014;BME280;46899;47.542;19.082;2023-07-20T12:28:40;99856.63;;;31.53;30.90
61014;BME280;46899;47.542;19.082;2023-07-20T12:31:43;99857.50;;;30.91;31.45
61014;BME280;46899;47.542;19.082;2023-07-20T12:34:46;99852.84;;;31.06;30.05
61014;BME280;46899;47.542;19.082;2023-07-20T12:37:48;99865.72;;;31.18;29.86
61014;BME280;46899;47.542;19.082;2023-07-20T12:40:51;99860.56;;;31.16;28.69
61014;BME280;46899;47.542;19.082;2023-07-20T12:43:54;99874.13;;;30.80;29.89
61014;BME280;46899;47.542;19.082;2023-07-20T12:47:00;99861.38;;;30.61;29.87
61014;BME280;46899;47.542;19.082;2023-07-20T12:50:02;99868.41;;;30.41;29.48
61014;BME280;46899;47.542;19.082;2023-07-20T12:53:09;99863.47;;;30.66;28.97
61014;BME280;46899;47.542;19.082;2023-07-20T12:56:11;99862.44;;;30.45;29.21
61014;BME280;46899;47.542;19.082;2023-07-20T12:59:17;99872.06;;;30.33;29.95
61014;BME280;46899;47.542;19.082;2023-07-20T13:02:19;99857.31;;;30.29;30.35
61014;BME280;46899;47.542;19.082;2023-07-20T13:05:21;99852.78;;;30.30;30.29
61014;BME280;46899;47.542;19.082;2023-07-20T13:08:44;99844.75;;;30.51;30.58
61014;BME280;46899;47.542;19.082;2023-07-20T13:11:46;99854.72;;;30.57;29.80
61014;BME280;46899;47.542;19.082;2023-07-20T13:14:49;99856.66;;;30.42;30.38
61014;BME280;46899;47.542;19.082;2023-07-20T13:17:51;99859.50;;;30.62;29.59
61014;BME280;46899;47.542;19.082;2023-07-20T13:20:54;99868.28;;;30.49;28.89
61014;BME280;46899;47.542;19.082;2023-07-20T13:23:57;99866.59;;;30.27;29.87
61014;BME280;46899;47.542;19.082;2023-07-20T13:26:59;99849.72;;;30.54;29.79
61014;BME280;46899;47.542;19.082;2023-07-20T13:30:02;99849.50;;;30.77;30.11
61014;BME280;46899;47.542;19.082;2023-07-20T13:33:11;99839.91;;;30.68;29.84
61014;BME280;46899;47.542;19.082;2023-07-20T13:36:19;99853.56;;;30.66;29.98
61014;BME280;46899;47.542;19.082;2023-07-20T13:39:24;99854.91;;;30.34;29.82
61014;BME280;46899;47.542;19.082;2023-07-20T13:42:29;99852.34;;;30.69;29.57
61014;BME280;46899;47.542;19.082;2023-07-20T13:45:31;99857.63;;;30.62;29.66
61014;BME280;46899;47.542;19.082;2023-07-20T13:48:34;99845.75;;;30.71;29.65
61014;BME280;46899;47.542;19.082;2023-07-20T13:51:39;99855.31;;;30.80;29.89
61014;BME280;46899;47.542;19.082;2023-07-20T13:54:43;99843.09;;;30.50;29.96
61014;BME280;46899;47.542;19.082;2023-07-20T13:57:48;99845.19;;;30.12;30.22
61014;BME280;46899;47.542;19.082;2023-07-20T14:00:50;99828.09;;;29.99;30.71
61014;BME280;46899;47.542;19.082;2023-07-20T14:03:53;99834.00;;;30.09;30.90
61014;BME280;46899;47.542;19.082;2023-07-20T14:06:56;99837.72;;;30.50;30.68
61014;BME280;46899;47.542;19.082;2023-07-20T14:09:59;99851.47;;;30.19;30.12
61014;BME280;46899;47.542;19.082;2023-07-20T14:13:04;99849.63;;;29.69;31.39
61014;BME280;46899;47.542;19.082;2023-07-20T14:16:06;99846.69;;;29.79;31.09
61014;BME280;46899;47.542;19.082;2023-07-20T14:19:10;99844.16;;;29.77;31.19
61014;BME280;46899;47.542;19.082;2023-07-20T14:22:15;99841.13;;;29.81;31.45
61014;BME280;46899;47.542;19.082;2023-07-20T14:25:18;99844.28;;;29.84;31.76
61014;BME280;46899;47.542;19.082;2023-07-20T14:28:21;99841.59;;;29.55;31.96
61014;BME280;46899;47.542;19.082;2023-07-20T14:31:24;99831.03;;;29.68;32.38
61014;BME280;46899;47.542;19.082;2023-07-20T14:34:27;99840.19;;;29.73;32.38
61014;BME280;46899;47.542;19.082;2023-07-20T14:37:30;99849.81;;;29.83;32.13
61014;BME280;46899;47.542;19.082;2023-07-20T14:40:32;99853.06;;;29.78;31.36
61014;BME280;46899;47.542;19.082;2023-07-20T14:43:35;99849.63;;;29.69;31.44
61014;BME280;46899;47.542;19.082;2023-07-20T14:46:37;99844.00;;;29.64;31.89
61014;BME280;46899;47.542;19.082;2023-07-20T14:49:40;99836.13;;;29.77;32.12
61014;BME280;46899;47.542;19.082;2023-07-20T14:52:43;99841.69;;;29.76;32.18
61014;BME280;46899;47.542;19.082;2023-07-20T14:55:48;99843.06;;;29.72;31.49
61014;BME280;46899;47.542;19.082;2023-07-20T14:58:50;99840.41;;;29.57;31.94
61014;BME280;46899;47.542;19.082;2023-07-20T15:01:53;99839.63;;;29.63;31.92
61014;BME280;46899;47.542;19.082;2023-07-20T15:04:56;99841.97;;;29.52;32.19
61014;BME280;46899;47.542;19.082;2023-07-20T15:07:58;99835.53;;;29.46;32.13
61014;BME280;46899;47.542;19.082;2023-07-20T15:11:01;99837.53;;;29.59;31.96
61014;BME280;46899;47.542;19.082;2023-07-20T15:14:03;99839.75;;;29.70;32.21
61014;BME280;46899;47.542;19.082;2023-07-20T15:17:06;99840.84;;;29.61;31.75
61014;BME280;46899;47.542;19.082;2023-07-20T15:20:10;99844.66;;;29.37;31.88
61014;BME280;46899;47.542;19.082;2023-07-20T15:23:13;99830.63;;;29.21;32.20
61014;BME280;46899;47.542;19.082;2023-07-20T15:26:16;99838.66;;;29.06;32.47
61014;BME280;46899;47.542;19.082;2023-07-20T15:29:18;99845.66;;;28.92;31.79
61014;BME280;46899;47.542;19.082;2023-07-20T15:32:25;99843.91;;;28.85;31.06
61014;BME280;46899;47.542;19.082;2023-07-20T15:35:28;99833.00;;;29.01;31.61
61014;BME280;46899;47.542;19.082;2023-07-20T15:38:30;99843.72;;;29.01;31.10
61014;BME280;46899;47.542;19.082;2023-07-20T15:41:33;99837.81;;;28.91;31.58
61014;BME280;46899;47.542;19.082;2023-07-20T15:44:37;99846.59;;;28.85;31.68
61014;BME280;46899;47.542;19.082;2023-07-20T15:47:39;99843.31;;;28.75;32.38
61014;BME280;46899;47.542;19.082;2023-07-20T15:50:42;99836.97;;;28.90;31.72
61014;BME280;46899;47.542;19.082;2023-07-20T15:53:45;99841.59;;;28.82;32.45
61014;BME280;46899;47.542;19.082;2023-07-20T15:56:49;99830.69;;;28.83;33.03
61014;BME280;46899;47.542;19.082;2023-07-20T15:59:52;99834.94;;;28.92;33.22
61014;BME280;46899;47.542;19.082;2023-07-20T16:02:55;99840.78;;;28.96;33.03
61014;BME280;46899;47.542;19.082;2023-07-20T16:05:58;99843.25;;;28.97;33.04
61014;BME280;46899;47.542;19.082;2023-07-20T16:09:01;99838.44;;;28.93;32.88
61014;BME280;46899;47.542;19.082;2023-07-20T16:12:06;99836.69;;;28.85;33.15
61014;BME280;46899;47.542;19.082;2023-07-20T16:15:09;99828.19;;;28.82;33.59
61014;BME280;46899;47.542;19.082;2023-07-20T16:18:12;99840.72;;;28.67;32.99
61014;BME280;46899;47.542;19.082;2023-07-20T16:21:14;99837.16;;;28.52;33.43
61014;BME280;46899;47.542;19.082;2023-07-20T16:24:18;99842.50;;;28.52;33.21